Terminal Aerodrome Forecast
Issued by NWS

Home | Current Version | Previous Version | Text Only | Print | Product List | Glossary On
Versions: 1 2 3 4 5 6 7 8 9 10 11 12 13 14 15 16 17 18 19 20
622
FTUS45 KRIW 240540
TAFJAC
TAF
KJAC 240540Z 2406/2506 03010KT 5SM -SN SCT020 OVC030
      TEMPO 2408/2411 2SM -SN
     FM241800 VRB04KT 6SM -SN VCSH SCT025 BKN040
      AMD LTD TO CLD VIS AND WIND=

USA.gov is the U.S. government's official web portal to all federal, state and local government web resources and services.